| time (UTC) | temp F | wind direction | speed knots | gust knots | rain 1hr in | rain 24hr in | rain mn in | humidity % | barometer mb |
| 20260504151006 | 73 | 135 | 0.9 | 2.6 | 0.00 | 0.00 | 0.00 | 61 | 1019.1 |
| 20260504150508 | 72 | 135 | 0.0 | 1.7 | 0.00 | 0.00 | 0.00 | 64 | 1019.1 |
| 20260504141007 | 66 | 135 | 0.0 | 0.9 | 0.00 | 0.00 | 0.00 | 74 | 1019.1 |
| 20260504140508 | 65 | 135 | 0.0 | 1.7 | 0.00 | 0.00 | 0.00 | 74 | 1019.1 |
| 20260504130504 | 58 | 135 | 0.0 | 0.9 | 0.00 | 0.00 | 0.00 | 88 | 1018.9 |
| 20260504110504 | 48 | 135 | 0.0 | 0.0 | 0.00 | 0.00 | 0.00 | 97 | 1018.3 |
| 20260504100505 | 48 | 135 | 0.0 | 0.0 | 0.00 | 0.00 | 0.00 | 97 | 1018.1 |
| 20260504082002 | 48 | 135 | 0.0 | 0.0 | 0.00 | 0.00 | 0.00 | 96 | 1018.5 |
| 20260504081503 | 49 | 135 | 0.0 | 0.0 | 0.00 | 0.00 | 0.00 | 96 | 1018.4 |
| 20260504081002 | 49 | 135 | 0.0 | 0.0 | 0.00 | 0.00 | 0.00 | 96 | 1018.5 |
| 20260504080506 | 50 | 135 | 0.0 | 0.0 | 0.00 | 0.00 | 0.00 | 97 | 1018.6 |
| 20260504050505 | 52 | 135 | 0.0 | 0.0 | 0.00 | 0.00 | 0.00 | 95 | 1019.8 |
| 20260504050018 | 52 | 135 | 0.0 | 0.0 | 0.00 | 0.00 | 0.00 | 95 | 1019.8 |
| 20260504045504 | 52 | 135 | 0.0 | 0.0 | 0.00 | 0.00 | 0.00 | 94 | 1019.7 |
| 20260504045006 | 53 | 135 | 0.0 | 0.0 | 0.00 | 0.00 | 0.00 | 94 | 1019.7 |
| 20260504044525 | 53 | 135 | 0.0 | 0.0 | 0.00 | 0.00 | 0.00 | 94 | 1019.7 |
| 20260504044006 | 53 | 135 | 0.0 | 0.0 | 0.00 | 0.00 | 0.00 | 94 | 1019.7 |
| 20260504043507 | 53 | 135 | 0.0 | 0.0 | 0.00 | 0.00 | 0.00 | 94 | 1019.7 |
| 20260504043026 | 53 | 135 | 0.0 | 0.0 | 0.00 | 0.00 | 0.00 | 94 | 1019.8 |
| 20260504042503 | 53 | 135 | 0.0 | 0.0 | 0.00 | 0.00 | 0.00 | 94 | 1019.9 |
| 20260504042004 | 53 | 135 | 0.0 | 0.0 | 0.00 | 0.00 | 0.00 | 93 | 1019.9 |
| 20260504041509 | 53 | 135 | 0.0 | 0.0 | 0.00 | 0.00 | 0.00 | 93 | 1020.0 |
| 20260504041004 | 53 | 135 | 0.0 | 0.0 | 0.00 | 0.00 | 0.00 | 93 | 1019.9 |
| 20260504040504 | 54 | 135 | 0.0 | 0.0 | 0.00 | 0.00 | 0.00 | 93 | 1019.9 |
| 20260504040014 | 54 | 135 | 0.0 | 0.0 | 0.00 | 0.00 | 0.00 | 93 | 1020.0 |
| 20260504035505 | 54 | 135 | 0.0 | 0.0 | 0.00 | 0.00 | 0.00 | 93 | 1020.0 |
| 20260504035005 | 54 | 135 | 0.0 | 0.0 | 0.00 | 0.00 | 0.00 | 92 | 1020.0 |
| 20260504034529 | 54 | 135 | 0.0 | 0.0 | 0.00 | 0.00 | 0.00 | 92 | 1020.0 |
| 20260504034005 | 54 | 135 | 0.0 | 0.0 | 0.00 | 0.00 | 0.00 | 92 | 1020.0 |
| 20260504033506 | 54 | 135 | 0.0 | 0.0 | 0.00 | 0.00 | 0.00 | 92 | 1020.0 |
| 20260504033035 | 54 | 135 | 0.0 | 0.9 | 0.00 | 0.00 | 0.00 | 92 | 1020.0 |
| 20260504032509 | 55 | 135 | 0.0 | 0.9 | 0.00 | 0.00 | 0.00 | 91 | 1020.0 |
| 20260504032011 | 55 | 135 | 0.0 | 0.0 | 0.00 | 0.00 | 0.00 | 91 | 1020.1 |
| 20260504031530 | 55 | 135 | 0.0 | 0.9 | 0.00 | 0.00 | 0.00 | 91 | 1020.0 |
| 20260504031010 | 55 | 135 | 0.0 | 0.9 | 0.00 | 0.00 | 0.00 | 90 | 1020.1 |
| 20260504030503 | 55 | 135 | 0.0 | 0.0 | 0.00 | 0.00 | 0.00 | 90 | 1020.0 |
| 20260504030010 | 55 | 135 | 0.0 | 0.9 | 0.00 | 0.00 | 0.00 | 89 | 1020.0 |
| 20260504025503 | 55 | 135 | 0.0 | 0.9 | 0.00 | 0.00 | 0.00 | 89 | 1020.0 |
| 20260504025003 | 56 | 135 | 0.0 | 0.9 | 0.00 | 0.00 | 0.00 | 89 | 1020.0 |
| 20260504024535 | 56 | 135 | 0.0 | 0.0 | 0.00 | 0.00 | 0.00 | 89 | 1019.9 |
| 20260504024007 | 56 | 135 | 0.0 | 0.0 | 0.00 | 0.00 | 0.00 | 88 | 1019.8 |
| 20260504023505 | 56 | 135 | 0.0 | 0.9 | 0.00 | 0.00 | 0.00 | 88 | 1019.7 |
| 20260504023018 | 56 | 135 | 0.0 | 0.9 | 0.00 | 0.00 | 0.00 | 88 | 1019.7 |
| 20260504022506 | 57 | 135 | 0.0 | 0.9 | 0.00 | 0.00 | 0.00 | 88 | 1019.6 |
| 20260504022014 | 57 | 135 | 0.0 | 0.0 | 0.00 | 0.00 | 0.00 | 86 | 1019.6 |
| 20260504021525 | 57 | 135 | 0.0 | 0.0 | 0.00 | 0.00 | 0.00 | 86 | 1019.5 |
| 20260504021006 | 57 | 135 | 0.0 | 0.0 | 0.00 | 0.00 | 0.00 | 85 | 1019.5 |
| 20260504020509 | 57 | 135 | 0.0 | 0.0 | 0.00 | 0.00 | 0.00 | 85 | 1019.5 |
| 20260504020026 | 58 | 135 | 0.0 | 0.0 | 0.00 | 0.00 | 0.00 | 85 | 1019.4 |
| 20260504015510 | 58 | 135 | 0.0 | 0.0 | 0.00 | 0.00 | 0.00 | 84 | 1019.4 |
| 20260504015003 | 58 | 135 | 0.0 | 0.0 | 0.00 | 0.00 | 0.00 | 83 | 1019.4 |
| 20260504014512 | 59 | 135 | 0.0 | 0.0 | 0.00 | 0.00 | 0.00 | 82 | 1019.3 |
| 20260504014007 | 59 | 135 | 0.0 | 0.0 | 0.00 | 0.00 | 0.00 | 81 | 1019.2 |
| 20260504013506 | 59 | 135 | 0.0 | 0.0 | 0.00 | 0.00 | 0.00 | 81 | 1019.2 |
| 20260504013018 | 60 | 135 | 0.0 | 0.0 | 0.00 | 0.00 | 0.00 | 80 | 1019.1 |
| 20260504012507 | 60 | 135 | 0.0 | 0.0 | 0.00 | 0.00 | 0.00 | 79 | 1019.0 |
| 20260504012007 | 60 | 135 | 0.0 | 0.0 | 0.00 | 0.00 | 0.00 | 75 | 1019.0 |
| 20260504011519 | 61 | 135 | 0.0 | 0.0 | 0.00 | 0.00 | 0.00 | 76 | 1019.1 |
| 20260504011008 | 61 | 135 | 0.0 | 0.0 | 0.00 | 0.00 | 0.00 | 78 | 1019.2 |
| 20260504010510 | 62 | 135 | 0.0 | 0.0 | 0.00 | 0.00 | 0.00 | 77 | 1019.1 |
| 20260504010028 | 62 | 135 | 0.0 | 0.0 | 0.00 | 0.00 | 0.00 | 77 | 1019.1 |
| 20260504005509 | 63 | 135 | 0.0 | 0.0 | 0.00 | 0.00 | 0.00 | 76 | 1019.0 |
| 20260504005011 | 63 | 135 | 0.0 | 0.0 | 0.00 | 0.00 | 0.00 | 75 | 1018.9 |
| 20260504004539 | 64 | 135 | 0.0 | 0.9 | 0.00 | 0.00 | 0.00 | 73 | 1018.8 |
| 20260504004009 | 64 | 135 | 0.0 | 0.9 | 0.00 | 0.00 | 0.00 | 70 | 1018.8 |
| 20260504003510 | 65 | 135 | 0.0 | 0.0 | 0.00 | 0.00 | 0.00 | 72 | 1018.8 |
| 20260504003016 | 65 | 135 | 0.0 | 0.0 | 0.00 | 0.00 | 0.00 | 68 | 1018.9 |
| 20260504002506 | 66 | 135 | 0.0 | 0.9 | 0.00 | 0.00 | 0.00 | 66 | 1018.8 |
| 20260504002006 | 67 | 135 | 0.0 | 0.9 | 0.00 | 0.00 | 0.00 | 68 | 1018.8 |
| 20260504001519 | 67 | 135 | 0.0 | 0.0 | 0.00 | 0.00 | 0.00 | 64 | 1018.8 |
| 20260504001007 | 68 | 135 | 0.0 | 0.0 | 0.00 | 0.00 | 0.00 | 64 | 1018.8 |
| 20260504000507 | 69 | 135 | 0.0 | 0.0 | 0.00 | 0.00 | 0.00 | 64 | 1018.8 |
| 20260504000024 | 69 | 135 | 0.0 | 0.0 | 0.00 | 0.00 | 0.00 | 59 | 1018.7 |
| 20260503235506 | 70 | 135 | 0.0 | 0.0 | 0.00 | 0.00 | 0.00 | 54 | 1018.7 |
| 20260503235010 | 71 | 135 | 0.0 | 0.0 | 0.00 | 0.00 | 0.00 | 51 | 1018.6 |
| 20260503234528 | 72 | 135 | 0.0 | 0.0 | 0.00 | 0.00 | 0.00 | 46 | 1018.7 |
| 20260503234012 | 73 | 135 | 0.0 | 0.0 | 0.00 | 0.00 | 0.00 | 50 | 1018.8 |
| 20260503233509 | 73 | 135 | 0.0 | 0.0 | 0.00 | 0.00 | 0.00 | 49 | 1018.8 |
| 20260503233030 | 74 | 135 | 0.0 | 1.7 | 0.00 | 0.00 | 0.00 | 41 | 1018.9 |
| 20260503232511 | 75 | 135 | 0.0 | 1.7 | 0.00 | 0.00 | 0.00 | 43 | 1019.0 |
| 20260503232010 | 74 | 135 | 0.0 | 0.9 | 0.00 | 0.00 | 0.00 | 45 | 1019.0 |
| 20260503231516 | 74 | 135 | 0.0 | 0.9 | 0.00 | 0.00 | 0.00 | 45 | 1018.9 |
| 20260503231012 | 73 | 135 | 0.0 | 0.9 | 0.00 | 0.00 | 0.00 | 46 | 1019.0 |
| 20260503230507 | 73 | 135 | 0.0 | 0.9 | 0.00 | 0.00 | 0.00 | 46 | 1019.1 |
| 20260503230022 | 73 | 135 | 0.0 | 2.6 | 0.00 | 0.00 | 0.00 | 43 | 1019.1 |
| 20260503225506 | 73 | 135 | 0.9 | 2.6 | 0.00 | 0.00 | 0.00 | 44 | 1019.0 |
| 20260503225012 | 73 | 135 | 0.0 | 0.9 | 0.00 | 0.00 | 0.00 | 47 | 1019.1 |
| 20260503224504 | 73 | 135 | 0.0 | 0.0 | 0.00 | 0.00 | 0.00 | 42 | 1019.2 |
| 20260503224005 | 73 | 135 | 0.0 | 0.9 | 0.00 | 0.00 | 0.00 | 42 | 1019.1 |
| 20260503223503 | 73 | 135 | 0.0 | 0.9 | 0.00 | 0.00 | 0.00 | 43 | 1019.1 |
| 20260503223005 | 73 | 135 | 0.0 | 2.6 | 0.00 | 0.00 | 0.00 | 42 | 1019.1 |
| 20260503222502 | 73 | 135 | 0.9 | 2.6 | 0.00 | 0.00 | 0.00 | 42 | 1019.0 |
| 20260503222002 | 73 | 135 | 0.0 | 1.7 | 0.00 | 0.00 | 0.00 | 39 | 1019.1 |
| 20260503221506 | 74 | 135 | 0.0 | 1.7 | 0.00 | 0.00 | 0.00 | 43 | 1019.1 |
| 20260503221001 | 74 | 135 | 0.0 | 1.7 | 0.00 | 0.00 | 0.00 | 46 | 1019.2 |
| 20260503220502 | 74 | 135 | 0.0 | 1.7 | 0.00 | 0.00 | 0.00 | 43 | 1019.2 |
| 20260503220003 | 74 | 135 | 0.0 | 0.9 | 0.00 | 0.00 | 0.00 | 41 | 1019.3 |
| 20260503215503 | 74 | 135 | 0.0 | 1.7 | 0.00 | 0.00 | 0.00 | 42 | 1019.3 |
| 20260503215002 | 74 | 135 | 0.0 | 2.6 | 0.00 | 0.00 | 0.00 | 39 | 1019.3 |
| 20260503214503 | 74 | 135 | 0.0 | 3.5 | 0.00 | 0.00 | 0.00 | 40 | 1019.4 |
| 20260503214003 | 74 | 135 | 0.9 | 4.3 | 0.00 | 0.00 | 0.00 | 41 | 1019.4 |
| 20260503213503 | 74 | 135 | 0.9 | 4.3 | 0.00 | 0.00 | 0.00 | 41 | 1019.4 |
| 20260503213007 | 74 | 135 | 1.7 | 4.3 | 0.00 | 0.00 | 0.00 | 38 | 1019.5 |
| 20260503212503 | 74 | 135 | 0.9 | 4.3 | 0.00 | 0.00 | 0.00 | 39 | 1019.5 |
| 20260503212004 | 74 | 135 | 0.0 | 5.2 | 0.00 | 0.00 | 0.00 | 40 | 1019.7 |
| 20260503211507 | 74 | 135 | 0.9 | 5.2 | 0.00 | 0.00 | 0.00 | 41 | 1019.8 |
| 20260503211003 | 74 | 135 | 0.0 | 2.6 | 0.00 | 0.00 | 0.00 | 44 | 1019.8 |
| 20260503210503 | 74 | 135 | 0.0 | 3.5 | 0.00 | 0.00 | 0.00 | 43 | 1019.8 |
| 20260503210007 | 74 | 135 | 0.0 | 4.3 | 0.00 | 0.00 | 0.00 | 40 | 1019.9 |
| 20260503205502 | 74 | 135 | 0.9 | 4.3 | 0.00 | 0.00 | 0.00 | 44 | 1020.0 |
| 20260503205003 | 74 | 135 | 0.0 | 3.5 | 0.00 | 0.00 | 0.00 | 46 | 1020.1 |
| 20260503204505 | 74 | 135 | 0.0 | 3.5 | 0.00 | 0.00 | 0.00 | 44 | 1020.1 |
| 20260503204002 | 74 | 135 | 0.0 | 6.1 | 0.00 | 0.00 | 0.00 | 43 | 1020.2 |
| 20260503203503 | 74 | 135 | 1.7 | 6.1 | 0.00 | 0.00 | 0.00 | 44 | 1020.4 |
| 20260503203006 | 74 | 135 | 0.0 | 2.6 | 0.00 | 0.00 | 0.00 | 44 | 1020.4 |
| 20260503202503 | 74 | 135 | 0.0 | 1.7 | 0.00 | 0.00 | 0.00 | 43 | 1020.5 |
| 20260503202004 | 74 | 135 | 0.9 | 2.6 | 0.00 | 0.00 | 0.00 | 44 | 1020.5 |
| 20260503201510 | 74 | 135 | 0.9 | 3.5 | 0.00 | 0.00 | 0.00 | 42 | 1020.5 |
| 20260503201004 | 74 | 135 | 1.7 | 3.5 | 0.00 | 0.00 | 0.00 | 43 | 1020.6 |
| 20260503200504 | 74 | 135 | 0.0 | 4.3 | 0.00 | 0.00 | 0.00 | 46 | 1020.7 |
| 20260503200010 | 74 | 135 | 0.9 | 4.3 | 0.00 | 0.00 | 0.00 | 42 | 1020.7 |
| 20260503195507 | 74 | 135 | 0.9 | 4.3 | 0.00 | 0.00 | 0.00 | 41 | 1020.8 |
| 20260503195005 | 74 | 135 | 0.0 | 4.3 | 0.00 | 0.00 | 0.00 | 43 | 1020.9 |
| 20260503194512 | 75 | 135 | 0.9 | 3.5 | 0.00 | 0.00 | 0.00 | 43 | 1021.0 |
| 20260503194004 | 74 | 135 | 1.7 | 3.5 | 0.00 | 0.00 | 0.00 | 40 | 1021.1 |
| 20260503193507 | 75 | 135 | 0.9 | 3.5 | 0.00 | 0.00 | 0.00 | 40 | 1021.1 |
| 20260503193009 | 75 | 135 | 0.0 | 3.5 | 0.00 | 0.00 | 0.00 | 45 | 1021.2 |
| 20260503192503 | 75 | 135 | 0.9 | 3.5 | 0.00 | 0.00 | 0.00 | 45 | 1021.3 |
| 20260503192003 | 74 | 135 | 0.9 | 3.5 | 0.00 | 0.00 | 0.00 | 45 | 1021.4 |
| 20260503191506 | 74 | 135 | 0.9 | 4.3 | 0.00 | 0.00 | 0.00 | 40 | 1021.6 |
| 20260503191006 | 75 | 135 | 0.9 | 4.3 | 0.00 | 0.00 | 0.00 | 40 | 1021.6 |
| 20260503190503 | 75 | 135 | 1.7 | 4.3 | 0.00 | 0.00 | 0.00 | 41 | 1021.7 |
| 20260503190023 | 74 | 135 | 0.0 | 3.5 | 0.00 | 0.00 | 0.00 | 44 | 1021.8 |
| 20260503185505 | 73 | 135 | 1.7 | 7.8 | 0.00 | 0.00 | 0.00 | 43 | 1021.9 |
| 20260503185002 | 73 | 135 | 3.5 | 7.8 | 0.00 | 0.00 | 0.00 | 39 | 1022.0 |
| 20260503184514 | 74 | 135 | 1.7 | 5.2 | 0.00 | 0.00 | 0.00 | 44 | 1022.0 |
| 20260503184004 | 74 | 135 | 0.9 | 4.3 | 0.00 | 0.00 | 0.00 | 41 | 1022.0 |
| 20260503183503 | 73 | 135 | 1.7 | 5.2 | 0.00 | 0.00 | 0.00 | 44 | 1022.1 |
| 20260503183012 | 73 | 135 | 0.9 | 5.2 | 0.00 | 0.00 | 0.00 | 44 | 1022.0 |
| 20260503182504 | 73 | 135 | 1.7 | 4.3 | 0.00 | 0.00 | 0.00 | 46 | 1022.1 |
| 20260503182006 | 74 | 135 | 0.9 | 3.5 | 0.00 | 0.00 | 0.00 | 43 | 1022.1 |
| 20260503181506 | 74 | 135 | 0.0 | 2.6 | 0.00 | 0.00 | 0.00 | 44 | 1022.3 |
| 20260503181003 | 73 | 135 | 0.9 | 5.2 | 0.00 | 0.00 | 0.00 | 44 | 1022.4 |
| 20260503180503 | 73 | 135 | 0.9 | 5.2 | 0.00 | 0.00 | 0.00 | 42 | 1022.4 |
| 20260503180009 | 73 | 135 | 1.7 | 5.2 | 0.00 | 0.00 | 0.00 | 41 | 1022.5 |
| 20260503175504 | 73 | 135 | 1.7 | 3.5 | 0.00 | 0.00 | 0.00 | 43 | 1022.5 |
| 20260503175003 | 73 | 135 | 0.0 | 3.5 | 0.00 | 0.00 | 0.00 | 44 | 1022.6 |
| 20260503174514 | 73 | 135 | 0.0 | 3.5 | 0.00 | 0.00 | 0.00 | 52 | 1022.7 |
| 20260503174004 | 73 | 135 | 0.0 | 4.3 | 0.00 | 0.00 | 0.00 | 47 | 1022.8 |
| 20260503173506 | 73 | 135 | 1.7 | 7.0 | 0.00 | 0.00 | 0.00 | 46 | 1023.0 |
| 20260503173019 | 73 | 135 | 0.9 | 7.0 | 0.00 | 0.00 | 0.00 | 46 | 1023.0 |
| 20260503172504 | 74 | 135 | 2.6 | 3.5 | 0.00 | 0.00 | 0.00 | 44 | 1023.0 |
| 20260503172003 | 74 | 135 | 0.0 | 2.6 | 0.00 | 0.00 | 0.00 | 46 | 1023.1 |
| 20260503171511 | 73 | 135 | 0.9 | 2.6 | 0.00 | 0.00 | 0.00 | 47 | 1023.2 |
| 20260503171003 | 72 | 135 | 0.0 | 5.2 | 0.00 | 0.00 | 0.00 | 52 | 1023.4 |
| 20260503170503 | 72 | 135 | 0.0 | 5.2 | 0.00 | 0.00 | 0.00 | 46 | 1023.3 |